Sterling, NY

3:49 PM EDT on May 25, 2017 (GMT -0400)
Hourigan's Dairy Farm | | Change Station

Elev 600 ft 43.02 °N, 76.44 °W | Updated 9 minutes ago

Rain
Rain
58.5 °F
Feels Like 58.5 °F
N
0.0
Wind Variable Wind from East

Today
High -- | Low -- °F
--% Chance of Precip.
Yesterday
High -- | Low -- °F
Precip. -- in
Pressure 29.55 in
Visibility 6.0 miles
Clouds Mostly Cloudy 1300 ft
Overcast 2000 ft
Dew Point 57.0 °F
Humidity 96%
Rainfall 0.44 in
Snow Depth Not available.
5:33 AM 8:34 PM
New Moon, 0% visible
SPECI KFZY 251935Z AUTO VRB06KT 6SM -RA BR BKN013 OVC020 14/12 A2955 RMK AO2 RAE19B29 P0001 T01440122
Pressure 29.55 in
Visibility 6.0 miles
Clouds Mostly Cloudy 1300 ft
Overcast 2000 ft
Dew Point 57.0 °F
Humidity 96%
Rainfall 0.44 in
Snow Depth Not available.
5:33 AM 8:34 PM
New Moon, 0% visible
SPECI KFZY 251935Z AUTO VRB06KT 6SM -RA BR BKN013 OVC020 14/12 A2955 RMK AO2 RAE19B29 P0001 T01440122

Get Severe Weather Alerts

Thanks for signing up!

Be on the lookout for a verification email in your inbox.

You'll start receiving the daily forecast at 6 AM.

×

10-Day Weather Forecast

Almanac

Astronomy

May. 25, 2017 Rise Set
Actual Time
Civil Twilight
Nautical Twilight
Astronomical Twilight
Moon
Length of Visible Light
Length of Day
Tomorrow will be .
, % of the Moon is Illuminated

Today's Extremes

State Highs State Lows

Community

WunderPhotos

Category 6

Welcome to Category 6. This is the collective home for Weather Underground's featured writeups by Dr. Jeff Masters (right), Bob Henson (left), Chris Burt, and other regular contributors.

Nearby

Air Quality

  Air Quality AQ Index Pollutant
Not available.

Snow Depth

Station Depth Elevation

Earthquake Activity

City Distance Mag. Time & Date
Minimum magnitude displayed is 2.5.

Coastal Water Temperatures

Place Temperature

Stations

Nearby Weather Stations

Station Location Temp. Windchill Dew Point Humidity Wind Precip. Elev Updated Type
                   

Watches & Warnings

There are currently no watches in effect.